createdAt,value
2023-05-15T00:02:08.835Z,8.15
2023-05-15T00:04:55.548Z,8.19
2023-05-15T00:07:42.692Z,8.05
2023-05-15T00:10:28.969Z,8.06
2023-05-15T00:13:18.576Z,8.15
2023-05-15T00:16:07.788Z,8.13
2023-05-15T00:18:54.372Z,8.36
2023-05-15T00:21:40.523Z,8.20
2023-05-15T00:24:26.750Z,8.16
2023-05-15T00:27:12.911Z,8.34
2023-05-15T00:29:59.428Z,8.40
2023-05-15T00:32:45.706Z,8.27
2023-05-15T00:35:32.667Z,8.10
2023-05-15T00:38:18.973Z,7.84
2023-05-15T00:41:07.539Z,8.43
2023-05-15T00:43:55.817Z,8.20
2023-05-15T00:46:45.450Z,8.14
2023-05-15T00:49:35.309Z,8.17
2023-05-15T00:52:22.775Z,8.15
2023-05-15T00:55:09.561Z,8.40
2023-05-15T00:57:57.631Z,8.40
2023-05-15T01:00:47.188Z,8.43
2023-05-15T01:03:33.594Z,8.36
2023-05-15T01:06:20.104Z,8.54
2023-05-15T01:09:08.320Z,8.73
2023-05-15T01:11:57.366Z,8.79
2023-05-15T01:14:43.742Z,8.87
2023-05-15T01:17:31.096Z,8.97
2023-05-15T01:20:18.782Z,8.91
2023-05-15T01:23:43.712Z,9.30
2023-05-15T01:27:27.337Z,9.39
2023-05-15T01:30:28.820Z,9.32
2023-05-15T01:33:26.651Z,9.25
2023-05-15T01:36:24.611Z,9.28
2023-05-15T01:39:11.498Z,9.19
2023-05-15T01:42:03.959Z,9.10
2023-05-15T01:44:54.691Z,9.16
2023-05-15T01:47:46.339Z,9.22
2023-05-15T01:50:34.791Z,9.01
2023-05-15T01:53:21.220Z,8.89
2023-05-15T01:56:09.896Z,9.00
2023-05-15T01:58:57.233Z,8.92
2023-05-15T02:01:45.899Z,8.77
2023-05-15T02:04:33.976Z,8.84
2023-05-15T02:07:20.878Z,8.66
2023-05-15T02:10:09.287Z,8.69
2023-05-15T02:12:56.510Z,8.73
2023-05-15T02:15:43.459Z,8.73
2023-05-15T02:18:30.202Z,8.82
2023-05-15T02:21:17.452Z,8.72
2023-05-15T02:24:04.089Z,8.93
2023-05-15T02:26:56.531Z,8.93
2023-05-15T02:30:01.628Z,8.98
2023-05-15T02:33:18.515Z,8.94
2023-05-15T02:36:11.334Z,9.00
2023-05-15T02:38:59.361Z,9.19
2023-05-15T02:41:46.985Z,9.19
2023-05-15T02:44:37.177Z,9.33
2023-05-15T02:47:24.278Z,9.37
2023-05-15T02:50:10.909Z,9.34
2023-05-15T02:53:04.791Z,9.25
2023-05-15T02:55:51.179Z,9.04
2023-05-15T02:58:38.610Z,8.98
2023-05-15T03:01:24.829Z,9.04
2023-05-15T03:04:11.036Z,9.09
2023-05-15T03:06:57.511Z,9.15
2023-05-15T03:09:43.962Z,9.27
2023-05-15T03:12:30.293Z,9.29
2023-05-15T03:15:16.771Z,9.32
2023-05-15T03:18:03.115Z,9.40
2023-05-15T03:20:52.527Z,9.44
2023-05-15T03:23:38.880Z,9.40
2023-05-15T03:26:25.642Z,9.16
2023-05-15T03:29:13.256Z,9.24
2023-05-15T03:31:59.713Z,9.36
2023-05-15T03:34:46.164Z,9.31
2023-05-15T03:37:32.892Z,9.30
2023-05-15T03:40:19.051Z,9.21
2023-05-15T03:43:06.516Z,9.24
2023-05-15T03:45:52.993Z,9.33
2023-05-15T03:48:39.221Z,9.46
2023-05-15T03:51:25.692Z,9.53
2023-05-15T03:54:13.474Z,9.42
2023-05-15T03:57:00.888Z,9.55
2023-05-15T03:59:47.351Z,9.56
2023-05-15T04:02:33.733Z,9.51
2023-05-15T04:05:21.766Z,9.66
2023-05-15T04:08:10.057Z,9.73
2023-05-15T04:10:56.373Z,9.75
2023-05-15T04:13:42.546Z,9.96
2023-05-15T04:16:29.098Z,10.06
2023-05-15T04:19:15.713Z,10.10
2023-05-15T04:22:01.974Z,10.22
2023-05-15T04:24:48.405Z,10.26
2023-05-15T04:27:36.380Z,10.40
2023-05-15T04:30:22.861Z,10.34
2023-05-15T04:33:09.121Z,10.48
2023-05-15T04:35:55.432Z,10.42
2023-05-15T04:38:42.192Z,10.58
2023-05-15T04:41:28.812Z,10.63
2023-05-15T04:44:15.118Z,10.44
2023-05-15T04:47:01.382Z,10.96
2023-05-15T04:49:50.551Z,11.02
2023-05-15T04:52:37.237Z,11.04
2023-05-15T04:55:23.821Z,11.24
2023-05-15T04:58:10.625Z,11.38
2023-05-15T05:00:56.768Z,11.58
2023-05-15T05:03:43.259Z,11.90
2023-05-15T05:06:30.541Z,12.15
2023-05-15T05:09:19.219Z,12.45
2023-05-15T05:12:07.397Z,12.71
2023-05-15T05:14:53.471Z,13.81
2023-05-15T05:17:39.718Z,14.84
2023-05-15T05:20:26.427Z,15.86
2023-05-15T05:23:14.761Z,16.55
2023-05-15T05:26:01.060Z,17.25
2023-05-15T05:28:47.861Z,17.50
2023-05-15T05:31:34.080Z,17.38
2023-05-15T05:34:20.577Z,16.98
2023-05-15T05:37:06.748Z,16.73
2023-05-15T05:39:54.744Z,16.38
2023-05-15T05:42:41.259Z,16.50
2023-05-15T05:45:28.137Z,15.87
2023-05-15T05:48:14.515Z,15.72
2023-05-15T05:51:00.815Z,15.28
2023-05-15T05:53:46.973Z,15.18
2023-05-15T05:56:33.317Z,14.65
2023-05-15T05:59:19.612Z,14.12
2023-05-15T06:02:06.241Z,13.65
2023-05-15T06:04:53.295Z,13.76
2023-05-15T06:07:40.065Z,14.06
2023-05-15T06:10:27.103Z,14.21
2023-05-15T06:13:14.838Z,14.35
2023-05-15T06:16:01.437Z,14.58
2023-05-15T06:18:48.014Z,14.58
2023-05-15T06:21:34.260Z,14.76
2023-05-15T06:24:20.607Z,14.98
2023-05-15T06:27:07.164Z,15.01
2023-05-15T06:29:53.648Z,15.16
2023-05-15T06:32:41.759Z,15.38
2023-05-15T06:35:28.435Z,15.16
2023-05-15T06:38:14.656Z,15.39
2023-05-15T06:41:09.757Z,15.40
2023-05-15T06:43:56.163Z,15.39
2023-05-15T06:46:42.578Z,15.36
2023-05-15T06:49:28.715Z,15.32
2023-05-15T06:52:15.297Z,15.35
2023-05-15T06:55:01.784Z,15.42
2023-05-15T06:57:48.141Z,15.49
2023-05-15T07:00:34.591Z,15.69
2023-05-15T07:03:21.393Z,15.74
2023-05-15T07:06:07.627Z,15.89
2023-05-15T07:08:54.000Z,15.84
2023-05-15T07:11:42.095Z,16.02
2023-05-15T07:14:28.598Z,16.02
2023-05-15T07:17:14.849Z,16.11
2023-05-15T07:20:01.793Z,16.07
2023-05-15T07:22:56.505Z,16.21
2023-05-15T07:25:44.690Z,16.36
2023-05-15T07:28:32.404Z,16.42
2023-05-15T07:31:20.532Z,16.57
2023-05-15T07:34:07.002Z,16.71
2023-05-15T07:36:53.186Z,16.88
2023-05-15T07:39:39.610Z,16.74
2023-05-15T07:42:26.125Z,17.10
2023-05-15T07:45:12.243Z,17.11
2023-05-15T07:47:59.090Z,17.50
2023-05-15T07:50:46.830Z,17.84
2023-05-15T07:53:33.270Z,17.94
2023-05-15T07:56:19.414Z,17.94
2023-05-15T07:59:06.788Z,17.76
2023-05-15T08:01:53.206Z,17.37
2023-05-15T08:04:39.974Z,16.96
2023-05-15T08:07:26.670Z,17.01
2023-05-15T08:10:12.882Z,16.78
2023-05-15T08:12:59.131Z,17.14
2023-05-15T08:15:45.438Z,17.45
2023-05-15T08:18:31.870Z,17.25
2023-05-15T08:21:18.669Z,17.02
2023-05-15T08:24:05.506Z,17.06
2023-05-15T08:26:51.979Z,17.39
2023-05-15T08:29:39.756Z,17.75
2023-05-15T08:32:27.239Z,18.03
2023-05-15T08:35:13.586Z,18.20
2023-05-15T08:37:59.903Z,18.45
2023-05-15T08:40:47.309Z,18.75
2023-05-15T08:43:36.630Z,18.61
2023-05-15T08:46:23.647Z,18.54
2023-05-15T08:49:26.755Z,18.39
2023-05-15T08:52:13.379Z,18.21
2023-05-15T08:55:00.956Z,18.52
2023-05-15T08:57:48.901Z,18.30
2023-05-15T09:00:36.032Z,18.01
2023-05-15T09:03:23.408Z,18.06
2023-05-15T09:06:10.512Z,18.04
2023-05-15T09:08:58.211Z,17.83
2023-05-15T09:11:45.549Z,17.67
2023-05-15T09:14:31.800Z,17.87
2023-05-15T09:17:18.056Z,18.09
2023-05-15T09:20:08.519Z,18.24
2023-05-15T09:22:56.020Z,18.49
2023-05-15T09:25:47.049Z,18.40
2023-05-15T09:28:33.875Z,18.38
2023-05-15T09:31:21.816Z,18.13
2023-05-15T09:34:10.098Z,18.42
2023-05-15T09:36:56.696Z,18.10
2023-05-15T09:39:44.269Z,17.99
2023-05-15T09:42:34.841Z,17.71
2023-05-15T09:45:21.356Z,17.30
2023-05-15T09:48:08.676Z,18.12
2023-05-15T09:50:56.889Z,17.99
2023-05-15T09:53:48.097Z,17.85
2023-05-15T09:56:34.503Z,17.31
2023-05-15T09:59:24.391Z,18.04
2023-05-15T10:02:14.708Z,18.54
2023-05-15T10:05:01.325Z,18.67
2023-05-15T10:07:54.505Z,18.87
2023-05-15T10:10:41.996Z,19.26
2023-05-15T10:13:31.831Z,19.51
2023-05-15T10:16:21.349Z,19.40
2023-05-15T10:19:10.133Z,19.72
2023-05-15T10:21:59.744Z,19.44
2023-05-15T10:24:48.783Z,19.28
2023-05-15T10:27:37.428Z,19.31
2023-05-15T10:30:25.041Z,19.29
2023-05-15T10:33:13.331Z,18.82
2023-05-15T10:36:00.327Z,18.47
2023-05-15T10:38:48.191Z,18.39
2023-05-15T10:41:39.553Z,19.08
2023-05-15T10:44:25.780Z,19.27
2023-05-15T10:47:12.279Z,19.55
2023-05-15T10:49:59.434Z,19.67
2023-05-15T10:52:46.165Z,19.47
2023-05-15T10:55:33.136Z,19.18
2023-05-15T10:58:23.933Z,19.38
2023-05-15T11:01:28.339Z,19.82
2023-05-15T11:04:17.161Z,20.21
2023-05-15T11:07:15.557Z,20.36
2023-05-15T11:10:28.028Z,20.58
2023-05-15T11:13:14.488Z,20.30
2023-05-15T11:16:00.909Z,20.23
2023-05-15T11:18:47.233Z,20.18
2023-05-15T11:21:33.495Z,20.50
2023-05-15T11:24:19.790Z,20.10
2023-05-15T11:27:06.073Z,19.73
2023-05-15T11:30:08.004Z,19.96
2023-05-15T11:33:10.160Z,19.98
2023-05-15T11:36:00.681Z,20.63
2023-05-15T11:38:50.880Z,20.79
2023-05-15T11:41:37.655Z,20.74
2023-05-15T11:44:24.565Z,20.27
2023-05-15T11:47:11.507Z,19.63
2023-05-15T11:49:58.278Z,20.05
2023-05-15T11:52:45.160Z,20.22
2023-05-15T11:55:33.285Z,20.50
2023-05-15T11:58:21.688Z,21.03
2023-05-15T12:01:11.831Z,20.85
2023-05-15T12:03:58.225Z,20.58
2023-05-15T12:06:47.412Z,20.97
2023-05-15T12:09:34.138Z,21.14
2023-05-15T12:12:20.775Z,21.16
2023-05-15T12:15:15.418Z,21.86
2023-05-15T12:18:04.094Z,21.69
2023-05-15T12:20:53.109Z,21.56
2023-05-15T12:23:39.828Z,21.46
2023-05-15T12:26:28.161Z,21.42
2023-05-15T12:29:15.531Z,21.29
2023-05-15T12:32:02.122Z,21.30
2023-05-15T12:34:49.128Z,21.35
2023-05-15T12:37:36.350Z,21.64
2023-05-15T12:40:23.451Z,21.61
2023-05-15T12:43:10.844Z,21.58
2023-05-15T12:45:58.315Z,21.48
2023-05-15T12:48:44.885Z,21.50
2023-05-15T12:51:32.130Z,21.61
2023-05-15T12:54:20.128Z,21.35
2023-05-15T12:57:06.474Z,21.43
2023-05-15T12:59:52.844Z,21.98
2023-05-15T13:02:39.324Z,22.23
2023-05-15T13:05:27.108Z,22.72
2023-05-15T13:08:18.175Z,23.36
2023-05-15T13:11:04.528Z,23.82
2023-05-15T13:13:50.744Z,23.43
2023-05-15T13:16:36.940Z,23.08
2023-05-15T13:19:23.519Z,22.67
2023-05-15T13:22:09.713Z,22.02
2023-05-15T13:24:56.831Z,21.89
2023-05-15T13:27:43.489Z,21.37
2023-05-15T13:30:30.693Z,21.29
2023-05-15T13:33:17.036Z,20.97
2023-05-15T13:36:03.744Z,20.33
2023-05-15T13:38:49.933Z,20.11
2023-05-15T13:41:36.729Z,19.88
2023-05-15T13:44:23.072Z,19.81
2023-05-15T13:47:09.308Z,19.99
2023-05-15T13:49:55.756Z,19.75
2023-05-15T13:52:43.298Z,19.70
2023-05-15T13:55:29.783Z,19.30
2023-05-15T13:58:16.618Z,19.70
2023-05-15T14:01:06.635Z,20.24
2023-05-15T14:03:54.029Z,20.59
2023-05-15T14:06:40.756Z,21.10
2023-05-15T14:09:28.205Z,21.34
2023-05-15T14:12:14.787Z,21.85
2023-05-15T14:15:01.179Z,21.94
2023-05-15T14:17:48.677Z,22.37
2023-05-15T14:20:35.428Z,22.62
2023-05-15T14:23:21.624Z,22.67
2023-05-15T14:26:08.195Z,22.15
2023-05-15T14:28:55.495Z,21.19
2023-05-15T14:31:43.125Z,19.05
2023-05-15T14:34:30.406Z,18.31
2023-05-15T14:37:18.025Z,17.94
2023-05-15T14:40:05.030Z,17.04
2023-05-15T14:42:51.662Z,16.19
2023-05-15T14:45:38.207Z,16.03
2023-05-15T14:48:24.739Z,15.98
2023-05-15T14:51:11.341Z,16.00
2023-05-15T14:53:57.892Z,16.16
2023-05-15T14:56:44.469Z,16.52
2023-05-15T14:59:30.857Z,16.70
2023-05-15T15:02:17.476Z,16.79
2023-05-15T15:05:04.521Z,16.47
2023-05-15T15:08:00.687Z,16.88
2023-05-15T15:10:46.948Z,16.97
2023-05-15T15:13:33.037Z,16.98
2023-05-15T15:16:19.260Z,16.73
2023-05-15T15:19:05.956Z,16.66
2023-05-15T15:21:53.786Z,16.24
2023-05-15T15:24:40.367Z,16.09
2023-05-15T15:27:27.505Z,16.06
2023-05-15T15:30:14.600Z,16.01
2023-05-15T15:33:01.227Z,15.94
2023-05-15T15:35:47.397Z,15.89
2023-05-15T15:38:33.945Z,15.90
2023-05-15T15:41:21.375Z,15.79
2023-05-15T15:44:08.096Z,15.64
2023-05-15T15:46:54.237Z,15.43
2023-05-15T15:49:41.591Z,14.77
2023-05-15T15:52:28.069Z,14.45
2023-05-15T15:55:14.596Z,14.65
2023-05-15T15:58:00.694Z,14.49
2023-05-15T16:00:47.244Z,14.46
2023-05-15T16:03:33.630Z,14.57
2023-05-15T16:06:20.325Z,14.60
2023-05-15T16:09:07.221Z,14.54
2023-05-15T16:11:53.884Z,14.41
2023-05-15T16:14:40.640Z,14.44
2023-05-15T16:17:26.851Z,14.56
2023-05-15T16:20:13.192Z,14.61
2023-05-15T16:22:59.484Z,14.61
2023-05-15T16:25:45.926Z,14.78
2023-05-15T16:28:32.337Z,14.89
2023-05-15T16:31:18.858Z,14.90
2023-05-15T16:34:05.590Z,14.95
2023-05-15T16:36:51.993Z,15.15
2023-05-15T16:39:41.254Z,15.17
2023-05-15T16:42:28.453Z,15.33
2023-05-15T16:45:14.717Z,15.39
2023-05-15T16:48:01.170Z,15.37
2023-05-15T16:50:47.704Z,15.56
2023-05-15T16:53:34.335Z,15.39
2023-05-15T16:56:20.830Z,15.37
2023-05-15T16:59:07.400Z,15.27
2023-05-15T17:01:53.644Z,15.32
2023-05-15T17:04:39.945Z,15.11
2023-05-15T17:07:26.253Z,14.96
2023-05-15T17:10:13.238Z,14.71
2023-05-15T17:12:59.709Z,14.72
2023-05-15T17:15:47.139Z,14.72
2023-05-15T17:18:33.431Z,14.65
2023-05-15T17:21:19.816Z,14.43
2023-05-15T17:24:06.166Z,14.45
2023-05-15T17:26:52.821Z,14.30
2023-05-15T17:29:39.222Z,13.93
2023-05-15T17:32:25.588Z,14.10
2023-05-15T17:35:12.013Z,14.07
2023-05-15T17:37:58.202Z,14.19
2023-05-15T17:40:44.645Z,14.14
2023-05-15T17:43:30.974Z,14.08
2023-05-15T17:46:17.521Z,14.25
2023-05-15T17:49:04.085Z,14.39
2023-05-15T17:51:50.979Z,14.32
2023-05-15T17:54:37.570Z,14.15
2023-05-15T17:57:23.759Z,14.24
2023-05-15T18:00:10.935Z,13.93
2023-05-15T18:03:01.191Z,14.15
2023-05-15T18:05:47.772Z,13.94
2023-05-15T18:08:34.040Z,13.74
2023-05-15T18:11:22.371Z,13.56
2023-05-15T18:14:09.516Z,13.44
2023-05-15T18:16:56.172Z,13.23
2023-05-15T18:19:44.749Z,13.44
2023-05-15T18:22:31.415Z,13.31
2023-05-15T18:25:18.280Z,13.33
2023-05-15T18:28:04.704Z,13.21
2023-05-15T18:30:51.157Z,13.17
2023-05-15T18:33:38.161Z,13.08
2023-05-15T18:36:24.321Z,12.86
2023-05-15T18:39:10.977Z,12.99
2023-05-15T18:41:57.072Z,12.89
2023-05-15T18:44:46.775Z,12.90
2023-05-15T18:47:33.511Z,12.89
2023-05-15T18:50:20.710Z,12.92
2023-05-15T18:53:07.175Z,12.84
2023-05-15T18:55:53.506Z,12.77
2023-05-15T18:58:39.758Z,12.59
2023-05-15T19:01:26.021Z,12.62
2023-05-15T19:04:12.672Z,12.58
2023-05-15T19:06:58.956Z,12.37
2023-05-15T19:09:45.424Z,12.19
2023-05-15T19:12:31.662Z,12.55
2023-05-15T19:15:19.096Z,12.40
2023-05-15T19:18:06.005Z,12.74
2023-05-15T19:20:54.130Z,12.53
2023-05-15T19:23:40.497Z,12.57
2023-05-15T19:26:28.486Z,12.41
2023-05-15T19:29:14.828Z,12.30
2023-05-15T19:32:02.925Z,12.39
2023-05-15T19:34:49.955Z,12.19
2023-05-15T19:37:36.409Z,12.45
2023-05-15T19:40:22.866Z,12.44
2023-05-15T19:43:11.314Z,12.25
2023-05-15T19:45:58.024Z,12.08
2023-05-15T19:48:45.023Z,12.20
2023-05-15T19:51:31.604Z,11.98
2023-05-15T19:54:18.008Z,11.94
2023-05-15T19:57:04.712Z,12.05
2023-05-15T19:59:51.569Z,11.92
2023-05-15T20:02:37.900Z,11.94
2023-05-15T20:05:24.531Z,11.93
2023-05-15T20:08:11.137Z,11.87
2023-05-15T20:10:57.894Z,12.07
2023-05-15T20:13:44.160Z,11.92
2023-05-15T20:16:30.555Z,11.88
2023-05-15T20:19:17.035Z,11.84
2023-05-15T20:22:03.962Z,11.81
2023-05-15T20:24:50.370Z,11.83
2023-05-15T20:27:37.154Z,11.75
2023-05-15T20:30:24.236Z,11.89
2023-05-15T20:33:11.502Z,11.82
2023-05-15T20:35:58.220Z,11.84
2023-05-15T20:38:44.973Z,11.67
2023-05-15T20:41:31.648Z,11.61
2023-05-15T20:44:17.817Z,11.49
2023-05-15T20:47:04.983Z,11.58
2023-05-15T20:49:51.500Z,11.17
2023-05-15T20:52:38.092Z,11.54
2023-05-15T20:55:24.622Z,11.57
2023-05-15T20:58:11.115Z,11.72
2023-05-15T21:01:00.704Z,11.72
2023-05-15T21:03:47.044Z,11.60
2023-05-15T21:06:33.674Z,11.63
2023-05-15T21:09:19.953Z,11.69
2023-05-15T21:12:06.626Z,11.67
2023-05-15T21:14:53.443Z,11.66
2023-05-15T21:17:40.262Z,11.51
2023-05-15T21:20:27.106Z,11.48
2023-05-15T21:23:14.033Z,11.43
2023-05-15T21:26:00.577Z,11.30
2023-05-15T21:28:46.782Z,11.45
2023-05-15T21:31:33.195Z,11.34
2023-05-15T21:34:20.224Z,11.44
2023-05-15T21:37:06.854Z,11.23
2023-05-15T21:39:53.410Z,11.46
2023-05-15T21:42:39.702Z,11.47
2023-05-15T21:45:25.884Z,11.44
2023-05-15T21:48:12.624Z,11.37
2023-05-15T21:50:58.848Z,11.27
2023-05-15T21:53:45.618Z,11.33
2023-05-15T21:56:32.205Z,11.25
2023-05-15T21:59:18.467Z,11.42
2023-05-15T22:02:05.119Z,11.30
2023-05-15T22:04:51.901Z,11.29
2023-05-15T22:07:38.289Z,11.27
2023-05-15T22:10:24.935Z,11.44
2023-05-15T22:13:11.637Z,11.35
2023-05-15T22:15:57.921Z,11.33
2023-05-15T22:18:45.188Z,11.30
2023-05-15T22:21:32.707Z,11.16
2023-05-15T22:24:19.088Z,11.11
2023-05-15T22:27:05.500Z,11.26
2023-05-15T22:29:51.884Z,11.24
2023-05-15T22:32:38.375Z,11.21
2023-05-15T22:35:24.895Z,11.21
2023-05-15T22:38:11.291Z,11.30
2023-05-15T22:40:57.721Z,11.19
2023-05-15T22:43:44.246Z,11.36
2023-05-15T22:46:30.857Z,11.40
2023-05-15T22:49:23.364Z,11.38
2023-05-15T22:52:11.606Z,11.44
2023-05-15T22:54:59.488Z,11.39
2023-05-15T22:57:45.877Z,11.32
2023-05-15T23:00:33.238Z,11.45
2023-05-15T23:03:19.499Z,11.25
2023-05-15T23:06:06.271Z,11.28
2023-05-15T23:08:52.798Z,11.02
2023-05-15T23:11:39.174Z,11.21
2023-05-15T23:14:25.821Z,11.36
2023-05-15T23:17:12.573Z,11.47
2023-05-15T23:19:59.058Z,11.51
2023-05-15T23:22:45.282Z,11.40
2023-05-15T23:25:31.658Z,11.27
2023-05-15T23:28:18.278Z,11.18
2023-05-15T23:31:04.708Z,11.21
2023-05-15T23:33:51.640Z,11.08
2023-05-15T23:36:37.727Z,11.01
2023-05-15T23:39:23.923Z,11.20
2023-05-15T23:42:12.255Z,11.22
2023-05-15T23:44:58.706Z,11.19
2023-05-15T23:47:46.580Z,10.93
2023-05-15T23:50:33.075Z,10.99
2023-05-15T23:53:19.206Z,11.09
2023-05-15T23:56:06.348Z,10.93
2023-05-15T23:58:52.905Z,10.97
